createdAt,value
2018-12-26T00:00:38.684Z,1027.92
2018-12-26T00:01:39.618Z,1027.87
2018-12-26T00:02:40.130Z,1027.89
2018-12-26T00:03:40.847Z,1027.84
2018-12-26T00:04:41.488Z,1027.81
2018-12-26T00:05:42.431Z,1027.75
2018-12-26T00:06:42.921Z,1027.82
2018-12-26T00:07:43.641Z,1027.78
2018-12-26T00:08:44.278Z,1027.75
2018-12-26T00:09:45.087Z,1027.72
2018-12-26T00:10:45.717Z,1027.76
2018-12-26T00:11:46.533Z,1027.74
2018-12-26T00:12:47.171Z,1027.74
2018-12-26T00:13:47.977Z,1027.69
2018-12-26T00:14:48.617Z,1027.72
2018-12-26T00:15:49.534Z,1027.71
2018-12-26T00:16:50.167Z,1027.70
2018-12-26T00:17:50.974Z,1027.70
2018-12-26T00:18:51.615Z,1027.68
2018-12-26T00:19:52.538Z,1027.64
2018-12-26T00:20:53.062Z,1027.69
2018-12-26T00:21:53.871Z,1027.64
2018-12-26T00:22:54.507Z,1027.67
2018-12-26T00:23:55.354Z,1027.70
2018-12-26T00:24:55.957Z,1027.63
2018-12-26T00:26:01.636Z,1027.68
2018-12-26T00:26:57.405Z,1027.66
2018-12-26T00:27:58.212Z,1027.66
2018-12-26T00:28:58.852Z,1027.66
2018-12-26T00:29:59.653Z,1027.65
2018-12-26T00:31:00.294Z,1027.63
2018-12-26T00:32:01.104Z,1027.62
2018-12-26T00:33:01.743Z,1027.62
2018-12-26T00:34:02.548Z,1027.62
2018-12-26T00:35:03.201Z,1027.55
2018-12-26T00:36:04.004Z,1027.62
2018-12-26T00:37:04.645Z,1027.59
2018-12-26T00:38:05.444Z,1027.65
2018-12-26T00:39:06.094Z,1027.69
2018-12-26T00:40:06.893Z,1027.65
2018-12-26T00:41:07.540Z,1027.64
2018-12-26T00:42:08.334Z,1027.61
2018-12-26T00:43:08.989Z,1027.54
2018-12-26T00:44:09.784Z,1027.57
2018-12-26T00:45:10.433Z,1027.53
2018-12-26T00:46:11.232Z,1027.52
2018-12-26T00:47:11.879Z,1027.45
2018-12-26T00:48:12.677Z,1027.42
2018-12-26T00:49:13.329Z,1027.48
2018-12-26T00:50:14.128Z,1027.44
2018-12-26T00:51:14.773Z,1027.42
2018-12-26T00:52:15.579Z,1027.44
2018-12-26T00:53:16.226Z,1027.43
2018-12-26T00:54:17.024Z,1027.42
2018-12-26T00:55:17.680Z,1027.42
2018-12-26T00:56:18.465Z,1027.42
2018-12-26T00:57:19.115Z,1027.46
2018-12-26T00:58:19.913Z,1027.43
2018-12-26T00:59:20.563Z,1027.47
2018-12-26T01:00:21.380Z,1027.46
2018-12-26T01:01:22.018Z,1027.44
2018-12-26T01:02:22.817Z,1027.46
2018-12-26T01:03:23.466Z,1027.50
2018-12-26T01:04:24.326Z,1027.47
2018-12-26T01:05:24.977Z,1027.49
2018-12-26T01:06:25.849Z,1027.44
2018-12-26T01:07:26.503Z,1027.44
2018-12-26T01:08:27.295Z,1027.42
2018-12-26T01:09:27.944Z,1027.40
2018-12-26T01:10:28.741Z,1027.39
2018-12-26T01:11:29.391Z,1027.36
2018-12-26T01:12:30.187Z,1027.36
2018-12-26T01:13:30.997Z,1027.35
2018-12-26T01:14:33.133Z,1027.34
2018-12-26T01:15:33.795Z,1027.37
2018-12-26T01:16:34.629Z,1027.36
2018-12-26T01:17:35.277Z,1027.32
2018-12-26T01:18:35.965Z,1027.39
2018-12-26T01:19:36.612Z,1027.36
2018-12-26T01:20:37.317Z,1027.38
2018-12-26T01:21:37.959Z,1027.39
2018-12-26T01:22:38.647Z,1027.41
2018-12-26T01:23:39.302Z,1027.40
2018-12-26T01:24:39.997Z,1027.44
2018-12-26T01:25:40.640Z,1027.45
2018-12-26T01:26:41.340Z,1027.50
2018-12-26T01:27:41.983Z,1027.50
2018-12-26T01:28:42.690Z,1027.50
2018-12-26T01:29:43.339Z,1027.51
2018-12-26T01:30:44.033Z,1027.49
2018-12-26T01:31:44.682Z,1027.52
2018-12-26T01:32:45.374Z,1027.49
2018-12-26T01:33:46.009Z,1027.49
2018-12-26T01:34:46.720Z,1027.44
2018-12-26T01:35:47.372Z,1027.46
2018-12-26T01:36:48.065Z,1027.40
2018-12-26T01:37:48.712Z,1027.45
2018-12-26T01:38:49.408Z,1027.43
2018-12-26T01:39:50.303Z,1027.43
2018-12-26T01:40:50.944Z,1027.42
2018-12-26T01:41:51.597Z,1027.51
2018-12-26T01:42:52.247Z,1027.45
2018-12-26T01:43:52.888Z,1027.42
2018-12-26T01:44:54.257Z,1027.48
2018-12-26T01:45:54.331Z,1027.41
2018-12-26T01:46:54.984Z,1027.39
2018-12-26T01:47:55.634Z,1027.40
2018-12-26T01:48:56.281Z,1027.37
2018-12-26T01:49:56.925Z,1027.36
2018-12-26T01:50:57.577Z,1027.41
2018-12-26T01:51:58.222Z,1027.38
2018-12-26T01:52:58.870Z,1027.38
2018-12-26T01:53:59.694Z,1027.38
2018-12-26T01:55:00.340Z,1027.38
2018-12-26T01:56:00.992Z,1027.37
2018-12-26T01:57:01.764Z,1027.31
2018-12-26T01:58:02.410Z,1027.32
2018-12-26T01:59:03.059Z,1027.28
2018-12-26T02:00:03.764Z,1027.30
2018-12-26T02:01:04.406Z,1027.28
2018-12-26T02:02:05.175Z,1027.25
2018-12-26T02:03:05.821Z,1027.19
2018-12-26T02:04:06.622Z,1027.18
2018-12-26T02:05:07.268Z,1027.19
2018-12-26T02:06:08.069Z,1027.17
2018-12-26T02:07:08.713Z,1027.18
2018-12-26T02:08:09.520Z,1027.13
2018-12-26T02:09:10.162Z,1027.16
2018-12-26T02:10:10.964Z,1027.15
2018-12-26T02:11:11.605Z,1027.12
2018-12-26T02:12:12.420Z,1027.15
2018-12-26T02:13:13.052Z,1027.18
2018-12-26T02:14:13.783Z,1027.12
2018-12-26T02:15:14.434Z,1027.13
2018-12-26T02:16:15.060Z,1027.07
2018-12-26T02:17:15.709Z,1027.09
2018-12-26T02:18:16.409Z,1027.05
2018-12-26T02:19:17.052Z,1027.08
2018-12-26T02:20:18.775Z,1027.02
2018-12-26T02:21:19.422Z,1027.00
2018-12-26T02:22:21.149Z,1027.05
2018-12-26T02:23:21.801Z,1027.06
2018-12-26T02:24:22.618Z,1027.01
2018-12-26T02:25:23.260Z,1027.00
2018-12-26T02:26:24.088Z,1027.02
2018-12-26T02:27:24.741Z,1027.02
2018-12-26T02:28:25.532Z,1026.95
2018-12-26T02:29:26.186Z,1027.02
2018-12-26T02:33:27.704Z,1026.93
2018-12-26T02:34:28.559Z,1026.92
2018-12-26T02:35:29.244Z,1026.96
2018-12-26T02:36:29.880Z,1026.96
2018-12-26T02:37:32.623Z,1026.98
2018-12-26T02:38:33.272Z,1027.03
2018-12-26T02:39:34.498Z,1027.01
2018-12-26T02:40:37.015Z,1026.98
2018-12-26T02:41:37.646Z,1026.97
2018-12-26T02:42:39.002Z,1026.96
2018-12-26T02:43:42.507Z,1026.97
2018-12-26T02:44:44.997Z,1026.99
2018-12-26T02:45:45.641Z,1026.96
2018-12-26T02:46:46.331Z,1026.98
2018-12-26T02:47:46.989Z,1026.99
2018-12-26T02:48:47.634Z,1026.95
2018-12-26T02:49:48.477Z,1026.98
2018-12-26T02:50:49.125Z,1026.93
2018-12-26T02:51:49.868Z,1026.92
2018-12-26T02:52:50.513Z,1026.93
2018-12-26T02:53:51.204Z,1026.91
2018-12-26T02:54:52.111Z,1026.93
2018-12-26T02:55:52.861Z,1026.95
2018-12-26T02:56:53.510Z,1026.91
2018-12-26T02:57:54.212Z,1026.91
2018-12-26T02:58:54.858Z,1026.94
2018-12-26T02:59:55.548Z,1026.88
2018-12-26T03:00:56.193Z,1026.83
2018-12-26T03:01:56.919Z,1026.79
2018-12-26T03:02:57.537Z,1026.82
2018-12-26T03:03:58.241Z,1026.82
2018-12-26T03:04:58.889Z,1026.78
2018-12-26T03:05:59.588Z,1026.78
2018-12-26T03:07:00.231Z,1026.77
2018-12-26T03:08:01.028Z,1026.70
2018-12-26T03:09:01.686Z,1026.72
2018-12-26T03:10:02.372Z,1026.67
2018-12-26T03:11:03.013Z,1026.71
2018-12-26T03:12:03.706Z,1026.71
2018-12-26T03:13:04.364Z,1026.71
2018-12-26T03:14:05.057Z,1026.72
2018-12-26T03:15:05.706Z,1026.71
2018-12-26T03:16:06.400Z,1026.71
2018-12-26T03:17:07.046Z,1026.67
2018-12-26T03:18:07.742Z,1026.69
2018-12-26T03:19:08.394Z,1026.67
2018-12-26T03:20:09.086Z,1026.63
2018-12-26T03:21:09.738Z,1026.61
2018-12-26T03:22:10.428Z,1026.59
2018-12-26T03:23:11.080Z,1026.57
2018-12-26T03:24:11.776Z,1026.53
2018-12-26T03:25:12.430Z,1026.53
2018-12-26T03:26:13.529Z,1026.51
2018-12-26T03:27:14.176Z,1026.48
2018-12-26T03:28:14.874Z,1026.48
2018-12-26T03:29:15.523Z,1026.53
2018-12-26T03:30:16.215Z,1026.57
2018-12-26T03:31:16.868Z,1026.63
2018-12-26T03:32:17.564Z,1026.60
2018-12-26T03:33:18.212Z,1026.55
2018-12-26T03:34:18.906Z,1026.48
2018-12-26T03:35:19.558Z,1026.57
2018-12-26T03:36:20.253Z,1026.59
2018-12-26T03:37:20.903Z,1026.57
2018-12-26T03:38:21.597Z,1026.49
2018-12-26T03:39:22.251Z,1026.52
2018-12-26T03:40:22.939Z,1026.55
2018-12-26T03:41:23.584Z,1026.54
2018-12-26T03:42:24.285Z,1026.48
2018-12-26T03:43:24.934Z,1026.44
2018-12-26T03:44:25.630Z,1026.40
2018-12-26T03:45:26.282Z,1026.39
2018-12-26T03:46:29.326Z,1026.34
2018-12-26T03:47:29.973Z,1026.35
2018-12-26T03:48:30.671Z,1026.35
2018-12-26T03:49:31.575Z,1026.34
2018-12-26T03:50:32.221Z,1026.29
2018-12-26T03:51:32.873Z,1026.28
2018-12-26T03:52:33.565Z,1026.22
2018-12-26T03:53:34.218Z,1026.26
2018-12-26T03:54:34.913Z,1026.16
2018-12-26T03:55:35.565Z,1026.12
2018-12-26T03:56:36.209Z,1026.12
2018-12-26T03:57:36.874Z,1026.14
2018-12-26T03:58:37.523Z,1026.15
2018-12-26T03:59:38.177Z,1026.16
2018-12-26T04:00:38.842Z,1026.15
2018-12-26T04:01:39.498Z,1026.17
2018-12-26T04:02:40.323Z,1026.17
2018-12-26T04:03:40.834Z,1026.17
2018-12-26T04:04:41.528Z,1026.18
2018-12-26T04:05:42.171Z,1026.20
2018-12-26T04:06:42.873Z,1026.14
2018-12-26T04:07:43.526Z,1026.15
2018-12-26T04:08:44.217Z,1026.13
2018-12-26T04:09:44.868Z,1026.13
2018-12-26T04:10:45.559Z,1026.11
2018-12-26T04:11:46.206Z,1026.14
2018-12-26T04:12:46.904Z,1026.08
2018-12-26T04:13:47.591Z,1026.03
2018-12-26T04:14:48.250Z,1026.06
2018-12-26T04:15:48.764Z,1026.06
2018-12-26T04:16:49.495Z,1026.10
2018-12-26T04:17:50.140Z,1026.11
2018-12-26T04:18:51.254Z,1026.12
2018-12-26T04:19:51.901Z,1026.06
2018-12-26T04:20:52.580Z,1026.04
2018-12-26T04:21:53.232Z,1026.06
2018-12-26T04:22:53.925Z,1026.11
2018-12-26T04:23:54.580Z,1026.11
2018-12-26T04:24:55.274Z,1026.17
2018-12-26T04:25:55.924Z,1026.16
2018-12-26T04:26:56.618Z,1026.17
2018-12-26T04:27:57.269Z,1026.21
2018-12-26T04:28:57.969Z,1026.15
2018-12-26T04:29:58.865Z,1026.13
2018-12-26T04:30:59.609Z,1026.18
2018-12-26T04:32:00.264Z,1026.15
2018-12-26T04:33:00.956Z,1026.13
2018-12-26T04:34:01.603Z,1026.13
2018-12-26T04:35:02.304Z,1026.08
2018-12-26T04:36:02.952Z,1026.09
2018-12-26T04:37:03.643Z,1026.05
2018-12-26T04:38:04.300Z,1026.08
2018-12-26T04:39:04.989Z,1026.03
2018-12-26T04:40:05.642Z,1026.09
2018-12-26T04:41:06.330Z,1026.06
2018-12-26T04:42:06.983Z,1026.05
2018-12-26T04:43:07.682Z,1026.05
2018-12-26T04:44:08.326Z,1026.05
2018-12-26T04:45:09.028Z,1026.08
2018-12-26T04:46:09.675Z,1026.07
2018-12-26T04:47:10.361Z,1026.12
2018-12-26T04:48:11.011Z,1026.08
2018-12-26T04:49:11.710Z,1026.11
2018-12-26T04:50:12.357Z,1026.10
2018-12-26T04:51:13.050Z,1026.11
2018-12-26T04:52:13.701Z,1026.09
2018-12-26T04:53:14.398Z,1026.07
2018-12-26T04:54:15.068Z,1026.14
2018-12-26T04:55:15.741Z,1026.13
2018-12-26T04:56:16.395Z,1026.08
2018-12-26T04:57:24.704Z,1026.15
2018-12-26T04:58:17.737Z,1026.08
2018-12-26T04:59:18.426Z,1026.08
2018-12-26T05:00:19.081Z,1026.14
2018-12-26T05:01:19.777Z,1026.06
2018-12-26T05:02:20.425Z,1026.07
2018-12-26T05:03:21.118Z,1026.03
2018-12-26T05:04:21.769Z,1026.04
2018-12-26T05:05:22.460Z,1026.11
2018-12-26T05:06:23.108Z,1026.17
2018-12-26T05:07:23.805Z,1026.19
2018-12-26T05:08:24.445Z,1026.21
2018-12-26T05:09:25.157Z,1026.21
2018-12-26T05:10:25.799Z,1026.25
2018-12-26T05:11:26.496Z,1026.22
2018-12-26T05:12:27.150Z,1026.26
2018-12-26T05:13:27.833Z,1026.29
2018-12-26T05:14:28.487Z,1026.25
2018-12-26T05:15:29.188Z,1026.29
2018-12-26T05:16:29.832Z,1026.29
2018-12-26T05:17:30.524Z,1026.26
2018-12-26T05:18:31.178Z,1026.31
2018-12-26T05:19:31.875Z,1026.32
2018-12-26T05:20:32.522Z,1026.27
2018-12-26T05:21:33.227Z,1026.33
2018-12-26T05:22:33.863Z,1026.29
2018-12-26T05:23:34.561Z,1026.27
2018-12-26T05:24:35.213Z,1026.29
2018-12-26T05:25:35.903Z,1026.28
2018-12-26T05:26:36.563Z,1026.35
2018-12-26T05:27:37.245Z,1026.33
2018-12-26T05:28:37.892Z,1026.28
2018-12-26T05:29:38.592Z,1026.31
2018-12-26T05:30:39.242Z,1026.31
2018-12-26T05:31:39.938Z,1026.32
2018-12-26T05:32:40.588Z,1026.35
2018-12-26T05:33:41.279Z,1026.30
2018-12-26T05:34:41.933Z,1026.32
2018-12-26T05:35:42.627Z,1026.31
2018-12-26T05:36:43.272Z,1026.34
2018-12-26T05:37:43.965Z,1026.36
2018-12-26T05:38:44.618Z,1026.34
2018-12-26T05:39:45.312Z,1026.33
2018-12-26T05:40:45.966Z,1026.34
2018-12-26T05:41:46.655Z,1026.34
2018-12-26T05:42:47.308Z,1026.37
2018-12-26T05:43:47.946Z,1026.36
2018-12-26T05:44:48.589Z,1026.38
2018-12-26T05:45:49.351Z,1026.33
2018-12-26T05:46:49.989Z,1026.34
2018-12-26T05:47:50.689Z,1026.42
2018-12-26T05:48:51.337Z,1026.37
2018-12-26T05:49:53.057Z,1026.38
2018-12-26T05:50:53.706Z,1026.39
2018-12-26T05:52:03.110Z,1026.39
2018-12-26T05:53:03.759Z,1026.46
2018-12-26T05:54:04.451Z,1026.44
2018-12-26T05:55:05.091Z,1026.48
2018-12-26T05:56:07.750Z,1026.44
2018-12-26T05:57:08.395Z,1026.46
2018-12-26T05:58:09.085Z,1026.42
2018-12-26T05:59:09.731Z,1026.45
2018-12-26T06:00:10.429Z,1026.44
2018-12-26T06:01:11.071Z,1026.46
2018-12-26T06:02:12.697Z,1026.45
2018-12-26T06:03:13.344Z,1026.46
2018-12-26T06:04:14.152Z,1026.51
2018-12-26T06:05:14.809Z,1026.45
2018-12-26T06:06:15.450Z,1026.45
2018-12-26T06:07:16.208Z,1026.44
2018-12-26T06:08:16.854Z,1026.41
2018-12-26T06:09:17.556Z,1026.48
2018-12-26T06:10:18.201Z,1026.48
2018-12-26T06:11:18.896Z,1026.49
2018-12-26T06:12:19.542Z,1026.54
2018-12-26T06:13:20.262Z,1026.50
2018-12-26T06:14:20.919Z,1026.48
2018-12-26T06:15:21.585Z,1026.42
2018-12-26T06:16:22.225Z,1026.46
2018-12-26T06:17:22.930Z,1026.42
2018-12-26T06:18:23.572Z,1026.44
2018-12-26T06:19:25.316Z,1026.47
2018-12-26T06:20:25.954Z,1026.46
2018-12-26T06:21:27.659Z,1026.45
2018-12-26T06:22:28.311Z,1026.52
2018-12-26T06:23:29.005Z,1026.51
2018-12-26T06:24:29.654Z,1026.54
2018-12-26T06:25:30.348Z,1026.55
2018-12-26T06:26:30.993Z,1026.54
2018-12-26T06:27:31.699Z,1026.50
2018-12-26T06:28:32.342Z,1026.54
2018-12-26T06:29:33.037Z,1026.52
2018-12-26T06:30:33.687Z,1026.50
2018-12-26T06:31:34.383Z,1026.47
2018-12-26T06:32:35.030Z,1026.49
2018-12-26T06:33:35.725Z,1026.46
2018-12-26T06:34:36.368Z,1026.47
2018-12-26T06:35:37.070Z,1026.44
2018-12-26T06:36:37.717Z,1026.44
2018-12-26T06:37:38.415Z,1026.47
2018-12-26T06:38:39.064Z,1026.45
2018-12-26T06:39:39.761Z,1026.50
2018-12-26T06:40:40.404Z,1026.47
2018-12-26T06:41:41.103Z,1026.48
2018-12-26T06:42:41.750Z,1026.48
2018-12-26T06:43:42.453Z,1026.50
2018-12-26T06:44:43.094Z,1026.49
2018-12-26T06:45:43.905Z,1026.49
2018-12-26T06:46:44.539Z,1026.51
2018-12-26T06:47:45.247Z,1026.52
2018-12-26T06:48:45.885Z,1026.47
2018-12-26T06:49:46.598Z,1026.50
2018-12-26T06:50:47.234Z,1026.47
2018-12-26T06:51:47.935Z,1026.50
2018-12-26T06:52:49.068Z,1026.51
2018-12-26T06:53:49.781Z,1026.45
2018-12-26T06:54:50.424Z,1026.41
2018-12-26T06:55:51.128Z,1026.41
2018-12-26T06:56:51.770Z,1026.42
2018-12-26T06:58:00.035Z,1026.41
2018-12-26T06:58:54.136Z,1026.48
2018-12-26T06:59:54.840Z,1026.52
2018-12-26T07:00:55.481Z,1026.57
2018-12-26T07:01:56.185Z,1026.51
2018-12-26T07:02:56.825Z,1026.57
2018-12-26T07:03:57.524Z,1026.62
2018-12-26T07:04:58.174Z,1026.57
2018-12-26T07:05:58.845Z,1026.54
2018-12-26T07:06:59.564Z,1026.59
2018-12-26T07:08:00.209Z,1026.52
2018-12-26T07:09:00.908Z,1026.51
2018-12-26T07:10:01.558Z,1026.53
2018-12-26T07:11:02.254Z,1026.54
2018-12-26T07:12:02.900Z,1026.49
2018-12-26T07:13:03.549Z,1026.54
2018-12-26T07:14:04.200Z,1026.49
2018-12-26T07:15:05.027Z,1026.49
2018-12-26T07:16:05.589Z,1026.50
2018-12-26T07:17:06.289Z,1026.52
2018-12-26T07:18:06.932Z,1026.51
2018-12-26T07:19:08.642Z,1026.54
2018-12-26T07:20:09.291Z,1026.51
2018-12-26T07:21:09.990Z,1026.55
2018-12-26T07:22:10.645Z,1026.54
2018-12-26T07:23:11.431Z,1026.56
2018-12-26T07:24:11.975Z,1026.59
2018-12-26T07:25:12.677Z,1026.59
2018-12-26T07:26:13.321Z,1026.59
2018-12-26T07:27:14.022Z,1026.59
2018-12-26T07:28:14.667Z,1026.57
2018-12-26T07:29:15.370Z,1026.55
2018-12-26T07:30:16.013Z,1026.53
2018-12-26T07:31:16.762Z,1026.52
2018-12-26T07:32:17.369Z,1026.51
2018-12-26T07:33:18.014Z,1026.53
2018-12-26T07:34:18.664Z,1026.51
2018-12-26T07:35:19.402Z,1026.49
2018-12-26T07:36:20.047Z,1026.46
2018-12-26T07:37:20.744Z,1026.45
2018-12-26T07:38:21.394Z,1026.44
2018-12-26T07:39:22.093Z,1026.42
2018-12-26T07:40:22.741Z,1026.47
2018-12-26T07:41:24.461Z,1026.45
2018-12-26T07:42:25.105Z,1026.44
2018-12-26T07:43:25.815Z,1026.46
2018-12-26T07:44:26.449Z,1026.46
2018-12-26T07:45:27.171Z,1026.50
2018-12-26T07:46:27.820Z,1026.53
2018-12-26T07:47:29.521Z,1026.52
2018-12-26T07:48:30.168Z,1026.47
2018-12-26T07:49:31.889Z,1026.47
2018-12-26T07:50:32.535Z,1026.50
2018-12-26T07:51:33.242Z,1026.44
2018-12-26T07:52:34.181Z,1026.46
2018-12-26T07:53:34.891Z,1026.45
2018-12-26T07:54:35.533Z,1026.44
2018-12-26T07:55:36.232Z,1026.39
2018-12-26T07:56:36.877Z,1026.41
2018-12-26T07:57:39.109Z,1026.43
2018-12-26T07:58:39.756Z,1026.44
2018-12-26T07:59:40.455Z,1026.47
2018-12-26T08:00:41.100Z,1026.53
2018-12-26T08:01:41.808Z,1026.54
2018-12-26T08:02:42.449Z,1026.54
2018-12-26T08:03:43.151Z,1026.57
2018-12-26T08:04:43.790Z,1026.57
2018-12-26T08:05:44.495Z,1026.55
2018-12-26T08:06:45.159Z,1026.51
2018-12-26T08:07:45.839Z,1026.48
2018-12-26T08:08:46.555Z,1026.46
2018-12-26T08:09:47.191Z,1026.42
2018-12-26T08:10:47.827Z,1026.45
2018-12-26T08:11:48.529Z,1026.44
2018-12-26T08:12:49.173Z,1026.43
2018-12-26T08:13:50.901Z,1026.45
2018-12-26T08:14:51.547Z,1026.44
2018-12-26T08:15:52.244Z,1026.45
2018-12-26T08:16:53.426Z,1026.44
2018-12-26T08:17:53.590Z,1026.45
2018-12-26T08:18:54.245Z,1026.42
2018-12-26T08:19:54.930Z,1026.41
2018-12-26T08:20:55.580Z,1026.44
2018-12-26T08:21:56.275Z,1026.39
2018-12-26T08:22:56.931Z,1026.42
2018-12-26T08:23:57.633Z,1026.47
2018-12-26T08:24:58.269Z,1026.46
2018-12-26T08:25:58.962Z,1026.43
2018-12-26T08:26:59.623Z,1026.42
2018-12-26T08:28:00.312Z,1026.47
2018-12-26T08:29:00.957Z,1026.42
2018-12-26T08:30:01.772Z,1026.43
2018-12-26T08:31:02.238Z,1026.45
2018-12-26T08:32:02.794Z,1026.44
2018-12-26T08:33:03.269Z,1026.48
2018-12-26T08:34:03.841Z,1026.49
2018-12-26T08:35:04.313Z,1026.52
2018-12-26T08:36:04.870Z,1026.47
2018-12-26T08:37:05.365Z,1026.46
2018-12-26T08:38:05.917Z,1026.49
2018-12-26T08:39:06.384Z,1026.51
2018-12-26T08:40:06.889Z,1026.48
2018-12-26T08:41:07.420Z,1026.46
2018-12-26T08:42:07.922Z,1026.45
2018-12-26T08:43:08.408Z,1026.44
2018-12-26T08:44:08.962Z,1026.47
2018-12-26T08:45:09.451Z,1026.46
2018-12-26T08:46:10.004Z,1026.51
2018-12-26T08:47:10.493Z,1026.50
2018-12-26T08:48:11.036Z,1026.49
2018-12-26T08:49:11.509Z,1026.49
2018-12-26T08:50:12.083Z,1026.49
2018-12-26T08:51:12.560Z,1026.48
2018-12-26T08:52:13.043Z,1026.49
2018-12-26T08:53:13.522Z,1026.51
2018-12-26T08:54:14.002Z,1026.55
2018-12-26T08:55:14.565Z,1026.51
2018-12-26T08:56:15.042Z,1026.54
2018-12-26T08:57:15.510Z,1026.53
2018-12-26T08:58:15.998Z,1026.60
2018-12-26T08:59:16.479Z,1026.60
2018-12-26T09:00:17.051Z,1026.60
2018-12-26T09:01:17.554Z,1026.62
2018-12-26T09:02:18.026Z,1026.60
2018-12-26T09:03:18.512Z,1026.61
2018-12-26T09:04:18.994Z,1026.57
2018-12-26T09:05:19.543Z,1026.65
2018-12-26T09:06:20.031Z,1026.64
2018-12-26T09:07:20.583Z,1026.62
2018-12-26T09:08:21.068Z,1026.66
2018-12-26T09:09:21.622Z,1026.63
2018-12-26T09:10:22.094Z,1026.64
2018-12-26T09:11:22.657Z,1026.61
2018-12-26T09:12:23.142Z,1026.61
2018-12-26T09:13:23.693Z,1026.67
2018-12-26T09:14:24.185Z,1026.58
2018-12-26T09:15:24.737Z,1026.63
2018-12-26T09:16:25.223Z,1026.64
2018-12-26T09:17:25.759Z,1026.67
2018-12-26T09:18:26.248Z,1026.69
2018-12-26T09:19:26.798Z,1026.70
2018-12-26T09:20:27.283Z,1026.68
2018-12-26T09:21:27.872Z,1026.67
2018-12-26T09:22:28.314Z,1026.65
2018-12-26T09:23:28.899Z,1026.67
2018-12-26T09:24:29.364Z,1026.65
2018-12-26T09:25:29.909Z,1026.69
2018-12-26T09:26:30.396Z,1026.68
2018-12-26T09:27:30.948Z,1026.69
2018-12-26T09:28:31.437Z,1026.71
2018-12-26T09:29:32.110Z,1026.69
2018-12-26T09:30:32.601Z,1026.70
2018-12-26T09:31:33.142Z,1026.71
2018-12-26T09:32:33.598Z,1026.73
2018-12-26T09:33:34.159Z,1026.68
2018-12-26T09:34:34.645Z,1026.70
2018-12-26T09:35:35.223Z,1026.69
2018-12-26T09:36:35.681Z,1026.71
2018-12-26T09:37:36.201Z,1026.66
2018-12-26T09:38:36.687Z,1026.71
2018-12-26T09:39:37.278Z,1026.70
2018-12-26T09:40:37.757Z,1026.68
2018-12-26T09:41:38.314Z,1026.68
2018-12-26T09:42:38.793Z,1026.68
2018-12-26T09:43:39.364Z,1026.65
2018-12-26T09:44:39.842Z,1026.69
2018-12-26T09:45:40.391Z,1026.64
2018-12-26T09:46:40.867Z,1026.64
2018-12-26T09:47:41.422Z,1026.59
2018-12-26T09:48:41.906Z,1026.63
2018-12-26T09:49:42.464Z,1026.60
2018-12-26T09:50:42.946Z,1026.64
2018-12-26T09:51:43.517Z,1026.62
2018-12-26T09:52:43.986Z,1026.58
2018-12-26T09:53:44.539Z,1026.54
2018-12-26T09:54:45.011Z,1026.58
2018-12-26T09:55:45.482Z,1026.57
2018-12-26T09:56:46.269Z,1026.58
2018-12-26T09:57:46.756Z,1026.52
2018-12-26T09:58:52.510Z,1026.55
2018-12-26T09:59:47.684Z,1026.55
2018-12-26T10:00:48.174Z,1026.57
2018-12-26T10:01:48.644Z,1026.55
2018-12-26T10:02:49.126Z,1026.54
2018-12-26T10:03:49.598Z,1026.54
2018-12-26T10:04:50.078Z,1026.54
2018-12-26T10:05:50.566Z,1026.55
2018-12-26T10:06:51.037Z,1026.53
2018-12-26T10:07:51.599Z,1026.55
2018-12-26T10:08:52.076Z,1026.48
2018-12-26T10:09:52.637Z,1026.52
2018-12-26T10:10:53.125Z,1026.57
2018-12-26T10:11:53.625Z,1026.53
2018-12-26T10:12:54.085Z,1026.53
2018-12-26T10:13:54.572Z,1026.50
2018-12-26T10:14:55.130Z,1026.50
2018-12-26T10:15:55.608Z,1026.50
2018-12-26T10:16:56.094Z,1026.48
2018-12-26T10:17:56.582Z,1026.51
2018-12-26T10:18:57.060Z,1026.53
2018-12-26T10:19:57.526Z,1026.52
2018-12-26T10:20:58.028Z,1026.49
2018-12-26T10:21:58.511Z,1026.49
2018-12-26T10:22:58.982Z,1026.47
2018-12-26T10:23:59.462Z,1026.52
2018-12-26T10:24:59.945Z,1026.48
2018-12-26T10:26:00.411Z,1026.48
2018-12-26T10:27:00.898Z,1026.46
2018-12-26T10:28:01.364Z,1026.48
2018-12-26T10:29:01.859Z,1026.46
2018-12-26T10:30:02.343Z,1026.49
2018-12-26T10:31:02.824Z,1026.49
2018-12-26T10:32:03.303Z,1026.48
2018-12-26T10:33:03.805Z,1026.50
2018-12-26T10:34:04.270Z,1026.51
2018-12-26T10:35:04.741Z,1026.56
2018-12-26T10:36:05.236Z,1026.52
2018-12-26T10:37:05.713Z,1026.48
2018-12-26T10:38:06.188Z,1026.50
2018-12-26T10:39:06.661Z,1026.47
2018-12-26T10:40:07.132Z,1026.44
2018-12-26T10:41:07.608Z,1026.46
2018-12-26T10:42:08.109Z,1026.43
2018-12-26T10:43:08.597Z,1026.45
2018-12-26T10:44:09.083Z,1026.46
2018-12-26T10:45:10.660Z,1026.47
2018-12-26T10:46:11.147Z,1026.48
2018-12-26T10:47:11.697Z,1026.49
2018-12-26T10:48:12.188Z,1026.49
2018-12-26T10:49:12.734Z,1026.47
2018-12-26T10:50:13.229Z,1026.48
2018-12-26T10:51:13.774Z,1026.47
2018-12-26T10:52:14.253Z,1026.46
2018-12-26T10:53:14.808Z,1026.45
2018-12-26T10:54:15.288Z,1026.49
2018-12-26T10:55:15.851Z,1026.46
2018-12-26T10:56:16.326Z,1026.50
2018-12-26T10:57:16.883Z,1026.47
2018-12-26T10:58:17.362Z,1026.44
2018-12-26T10:59:17.920Z,1026.47
2018-12-26T11:00:18.411Z,1026.48
2018-12-26T11:01:18.971Z,1026.45
2018-12-26T11:02:19.450Z,1026.46
2018-12-26T11:03:19.996Z,1026.40
2018-12-26T11:04:20.514Z,1026.40
2018-12-26T11:05:29.355Z,1026.44
2018-12-26T11:06:21.511Z,1026.48
2018-12-26T11:07:22.075Z,1026.45
2018-12-26T11:08:22.550Z,1026.42
2018-12-26T11:09:23.172Z,1026.41
2018-12-26T11:10:23.593Z,1026.40
2018-12-26T11:11:24.156Z,1026.38
2018-12-26T11:12:24.642Z,1026.37
2018-12-26T11:13:25.227Z,1026.35
2018-12-26T11:14:25.703Z,1026.31
2018-12-26T11:15:26.236Z,1026.31
2018-12-26T11:16:26.706Z,1026.35
2018-12-26T11:17:27.281Z,1026.37
2018-12-26T11:18:27.756Z,1026.30
2018-12-26T11:19:28.308Z,1026.35
2018-12-26T11:20:28.789Z,1026.30
2018-12-26T11:21:29.351Z,1026.27
2018-12-26T11:22:29.815Z,1026.26
2018-12-26T11:23:30.381Z,1026.24
2018-12-26T11:24:30.863Z,1026.22
2018-12-26T11:25:32.440Z,1026.22
2018-12-26T11:26:32.910Z,1026.20
2018-12-26T11:27:33.480Z,1026.18
2018-12-26T11:28:33.969Z,1026.17
2018-12-26T11:29:34.524Z,1026.17
2018-12-26T11:30:34.991Z,1026.12
2018-12-26T11:31:35.555Z,1026.11
2018-12-26T11:32:36.041Z,1026.14
2018-12-26T11:33:36.593Z,1026.14
2018-12-26T11:34:37.069Z,1026.14
2018-12-26T11:35:37.631Z,1026.15
2018-12-26T11:36:38.112Z,1026.10
2018-12-26T11:37:38.667Z,1026.12
2018-12-26T11:38:39.154Z,1026.10
2018-12-26T11:39:39.705Z,1026.14
2018-12-26T11:40:40.184Z,1026.13
2018-12-26T11:41:40.767Z,1026.14
2018-12-26T11:42:41.232Z,1026.13
2018-12-26T11:43:41.777Z,1026.16
2018-12-26T11:44:42.261Z,1026.17
2018-12-26T11:45:42.816Z,1026.14
2018-12-26T11:46:43.306Z,1026.16
2018-12-26T11:47:43.852Z,1026.16
2018-12-26T11:48:44.329Z,1026.15
2018-12-26T11:49:44.897Z,1026.15
2018-12-26T11:50:45.382Z,1026.12
2018-12-26T11:51:45.929Z,1026.11
2018-12-26T11:52:46.414Z,1026.11
2018-12-26T11:53:46.966Z,1026.08
2018-12-26T11:54:47.454Z,1026.09
2018-12-26T11:55:48.006Z,1026.04
2018-12-26T11:56:48.486Z,1026.06
2018-12-26T11:57:49.042Z,1026.06
2018-12-26T11:58:49.525Z,1026.02
2018-12-26T11:59:50.077Z,1026.02
2018-12-26T12:00:50.552Z,1026.02
2018-12-26T12:01:51.111Z,1026.00
2018-12-26T12:02:53.430Z,1026.00
2018-12-26T12:03:52.156Z,1025.99
2018-12-26T12:04:52.632Z,1025.96
2018-12-26T12:05:53.201Z,1025.90
2018-12-26T12:06:53.695Z,1025.91
2018-12-26T12:07:54.167Z,1025.93
2018-12-26T12:08:54.743Z,1025.94
2018-12-26T12:09:55.317Z,1025.93
2018-12-26T12:10:55.786Z,1025.92
2018-12-26T12:11:56.261Z,1025.91
2018-12-26T12:12:56.817Z,1025.91
2018-12-26T12:13:57.304Z,1025.93
2018-12-26T12:14:57.778Z,1025.91
2018-12-26T12:15:58.267Z,1026.01
2018-12-26T12:16:58.751Z,1025.92